Time;durP1;ratioP1;P1;durP2;ratioP2;P2;SDS_P1;SDS_P2;PMS_P1;PMS_P2;Temp;Humidity;BMP_temperature;BMP_pressure;BME280_temperature;BME280_humidity;BME280_pressure;Samples;Min_cycle;Max_cycle;Signal;HPM_P1;HPM_P2
2023/12/03 00:01:28;;;;;;;;;;;;;;;-0.60;100.00;98191.13;135265;1281;22516;-72
2023/12/03 00:04:36;;;;;;;58.90;22.30;;;;;;;-0.77;100.00;98195.67;135267;1281;22566;-71
2023/12/03 00:07:38;;;;;;;63.70;22.70;;;;;;;-0.91;100.00;98201.00;135182;1281;24369;-72
2023/12/03 00:10:41;;;;;;;;;;;;;;;-0.85;100.00;98199.98;135239;1281;22519;-71
2023/12/03 00:13:43;;;;;;;60.20;21.00;;;;;;;-0.76;100.00;98200.63;135184;1281;22536;-73
2023/12/03 00:16:46;;;;;;;;;;;;;;;-0.78;100.00;98200.52;135208;1281;22542;-72
2023/12/03 00:19:49;;;;;;;60.40;20.60;;;;;;;-0.83;100.00;98203.18;135202;1281;24259;-72
2023/12/03 00:22:51;;;;;;;61.70;22.70;;;;;;;-0.96;100.00;98210.54;135133;1281;22526;-72
2023/12/03 00:25:54;;;;;;;;;;;;;;;-1.08;100.00;98214.96;135203;1281;22521;-73
2023/12/03 00:28:56;;;;;;;60.40;19.70;;;;;;;-1.10;100.00;98220.14;135212;1281;22536;-71
2023/12/03 00:31:59;;;;;;;65.10;21.40;;;;;;;-1.02;100.00;98225.80;135182;1282;25430;-71
2023/12/03 00:35:02;;;;;;;;;;;;;;;-0.96;100.00;98233.90;135250;1270;22560;-71
2023/12/03 00:38:04;;;;;;;67.50;21.60;;;;;;;-0.90;100.00;98238.91;135169;1281;22542;-72
2023/12/03 00:41:07;;;;;;;;;;;;;;;-0.89;100.00;98237.31;135230;1281;22517;-72
2023/12/03 00:44:09;;;;;;;64.30;22.90;;;;;;;-0.83;100.00;98237.02;135211;1281;22562;-73
2023/12/03 00:47:12;;;;;;;66.50;22.80;;;;;;;-0.74;100.00;98244.52;135200;1281;22660;-72
2023/12/03 00:50:15;;;;;;;;;;;;;;;-0.73;100.00;98251.21;135204;1281;22674;-74
2023/12/03 00:53:17;;;;;;;72.00;25.60;;;;;;;-0.71;100.00;98255.95;135214;1282;22784;-72
2023/12/03 00:56:20;;;;;;;73.70;25.70;;;;;;;-0.78;100.00;98261.79;135220;1281;22660;-73
2023/12/03 00:59:22;;;;;;;;;;;;;;;-0.67;100.00;98260.14;135217;1277;22523;-71
2023/12/03 01:02:25;;;;;;;76.00;25.70;;;;;;;-0.60;100.00;98267.38;135209;1281;22543;-73
2023/12/03 01:05:27;;;;;;;;;;;;;;;-0.49;100.00;98263.14;135208;1270;22515;-72
2023/12/03 01:08:30;;;;;;;70.80;22.40;;;;;;;-0.69;100.00;98272.23;135193;1281;22543;-73
2023/12/03 01:11:33;;;;;;;71.50;24.80;;;;;;;-0.90;100.00;98278.56;135217;1281;22566;-71
2023/12/03 01:14:35;;;;;;;;;;;;;;;-0.91;100.00;98288.88;135176;1282;22652;-73
2023/12/03 01:17:40;;;;;;;80.80;26.10;;;;;;;-0.84;100.00;98295.58;135163;1281;22562;-71
2023/12/03 01:20:42;;;;;;;79.70;28.00;;;;;;;-0.83;100.00;98304.15;135186;1281;22646;-71
2023/12/03 01:23:45;;;;;;;;;;;;;;;-0.89;100.00;98302.56;135235;1281;22513;-72
2023/12/03 01:26:47;;;;;;;77.70;23.90;;;;;;;-0.90;100.00;98309.81;135229;1281;22536;-70
2023/12/03 01:29:50;;;;;;;;;;;;;;;-0.90;100.00;98315.96;135181;1281;22518;-72
2023/12/03 01:32:52;;;;;;;71.30;22.30;;;;;;;-0.99;100.00;98322.17;135165;1263;22559;-72
2023/12/03 01:35:55;;;;;;;;;;;;;;;-0.95;100.00;98328.11;135179;1281;22535;-72
2023/12/03 01:38:58;;;;;;;73.10;24.10;;;;;;;-1.01;100.00;98328.23;135109;1281;22631;-74
2023/12/03 01:42:00;;;;;;;80.10;26.30;;;;;;;-1.05;100.00;98325.39;135114;1281;24313;-71
2023/12/03 01:45:03;;;;;;;;;;;;;;;-1.03;100.00;98330.85;135157;1262;22529;-71
2023/12/03 01:48:06;;;;;;;67.80;23.60;;;;;;;-1.00;100.00;98336.29;135134;1281;22590;-71
2023/12/03 01:51:09;;;;;;;73.10;24.10;;;;;;;-1.09;100.00;98338.20;135107;1281;22550;-72
2023/12/03 01:54:11;;;;;;;74.30;23.90;;;;;;;-1.05;100.00;98340.67;135115;1281;24494;-71
2023/12/03 01:57:14;;;;;;;;;;;;;;;-1.05;100.00;98346.68;135182;1282;22520;-72
2023/12/03 02:00:17;;;;;;;67.10;21.50;;;;;;;-0.99;100.00;98351.20;135172;1281;22537;-72
2023/12/03 02:03:20;;;;;;;76.00;24.60;;;;;;;-0.97;100.00;98355.27;135149;1281;24285;-73
2023/12/03 02:06:24;;;;;;;68.80;22.20;;;;;;;-0.93;100.00;98360.85;135196;1282;22645;-73
2023/12/03 02:09:26;;;;;;;74.40;24.00;;;;;;;-0.85;100.00;98362.74;135184;1281;25409;-73
2023/12/03 02:12:29;;;;;;;;;;;;;;;-0.78;100.00;98364.96;135211;1282;22511;-72
2023/12/03 02:15:32;;;;;;;68.70;24.30;;;;;;;-0.71;100.00;98365.52;135167;1281;22558;-72
2023/12/03 02:18:35;;;;;;;72.10;24.40;;;;;;;-0.75;100.00;98368.01;135201;1269;22546;-72
2023/12/03 02:21:37;;;;;;;69.80;24.80;;;;;;;-0.84;100.00;98370.09;135196;1281;22547;-71
2023/12/03 02:24:40;;;;;;;;;;;;;;;-0.80;100.00;98373.45;135203;1281;22521;-71
2023/12/03 02:27:42;;;;;;;66.40;21.80;;;;;;;-0.66;100.00;98378.78;135186;1281;22484;-71
2023/12/03 02:30:45;;;;;;;;;;;;;;;-0.65;100.00;98379.79;135220;1281;22647;-71
2023/12/03 02:33:48;;;;;;;77.20;22.10;;;;;;;-0.70;100.00;98379.41;135194;1281;22577;-70
2023/12/03 02:36:50;;;;;;;;;;;;;;;-0.68;100.00;98390.16;135233;1281;24246;-72
2023/12/03 02:39:53;;;;;;;68.20;22.50;;;;;;;-0.74;100.00;98396.98;135229;1281;22549;-72
2023/12/03 02:42:55;;;;;;;67.20;22.80;;;;;;;-0.69;100.00;98406.52;135241;1281;22589;-73
2023/12/03 02:45:58;;;;;;;;;;;;;;;-0.67;100.00;98411.79;135236;1281;22539;-72
2023/12/03 02:49:01;;;;;;;63.30;20.70;;;;;;;-0.61;100.00;98414.56;135240;1281;22554;-73
2023/12/03 02:52:03;;;;;;;;;;;;;;;-0.68;100.00;98415.42;135255;1281;22516;-72
2023/12/03 02:55:07;;;;;;;72.80;23.70;;;;;;;-0.61;100.00;98424.37;135205;1281;22562;-72
2023/12/03 02:58:09;;;;;;;;;;;;;;;-0.56;100.00;98429.42;135264;1261;22515;-72
2023/12/03 03:01:12;;;;;;;64.40;21.30;;;;;;;-0.49;100.00;98428.38;135197;1281;22539;-72
2023/12/03 03:04:15;;;;;;;;;;;;;;;-0.49;100.00;98431.31;135277;1281;22506;-72
2023/12/03 03:07:17;;;;;;;63.30;20.70;;;;;;;-0.43;100.00;98429.10;135243;1281;22552;-73
2023/12/03 03:10:20;;;;;;;;;;;;;;;-0.44;100.00;98439.96;135205;1281;22623;-75
2023/12/03 03:13:23;;;;;;;50.60;17.80;;;;;;;-0.66;100.00;98441.31;135265;1281;24247;-71
2023/12/03 03:16:26;;;;;;;;;;;;;;;-0.71;100.00;98446.21;135239;1281;25408;-72
2023/12/03 03:19:29;;;;;;;53.00;17.70;;;;;;;-0.61;100.00;98456.30;135203;1281;22572;-72
2023/12/03 03:22:32;;;;;;;51.50;16.10;;;;;;;-0.61;100.00;98461.30;135186;1281;25337;-72
2023/12/03 03:25:34;;;;;;;;;;;;;;;-0.58;100.00;98469.13;135263;1281;22556;-73
2023/12/03 03:28:37;;;;;;;49.20;17.40;;;;;;;-0.57;100.00;98473.73;135238;1281;22544;-72
2023/12/03 03:31:39;;;;;;;;;;;;;;;-0.52;100.00;98479.64;135232;1281;22509;-73
2023/12/03 03:34:42;;;;;;;39.50;13.60;;;;;;;-0.46;100.00;98486.23;135218;1281;25448;-73
2023/12/03 03:37:44;;;;;;;50.60;15.40;;;;;;;-0.47;100.00;98489.15;135248;1263;22695;-72
2023/12/03 03:40:47;;;;;;;;;;;;;;;-0.38;100.00;98495.83;135240;1281;22509;-72
2023/12/03 03:43:50;;;;;;;53.30;19.10;;;;;;;-0.45;100.00;98501.30;135229;1281;23892;-70
2023/12/03 03:46:52;;;;;;;;;;;;;;;-0.47;100.00;98504.96;135221;1281;22520;-72
2023/12/03 03:49:55;;;;;;;55.90;19.00;;;;;;;-0.46;100.00;98503.39;135243;1281;24355;-72
2023/12/03 03:52:57;;;;;;;;;;;;;;;-0.54;100.00;98506.31;135198;1281;26535;-72
2023/12/03 03:56:00;;;;;;;46.90;14.80;;;;;;;-0.39;100.00;98508.57;135185;1281;22539;-72
2023/12/03 03:59:03;;;;;;;52.50;17.20;;;;;;;-0.44;100.00;98513.65;135189;1281;22541;-72
2023/12/03 04:02:05;;;;;;;;;;;;;;;-0.48;100.00;98520.29;135213;1261;23033;-70
2023/12/03 04:05:08;;;;;;;57.40;18.60;;;;;;;-0.47;100.00;98527.65;135224;1281;22523;-71
2023/12/03 04:08:10;;;;;;;58.60;22.20;;;;;;;-0.41;100.00;98534.38;135181;1281;22551;-70
2023/12/03 04:11:13;;;;;;;;;;;;;;;-0.57;100.00;98538.84;135213;1281;22518;-73
2023/12/03 04:14:16;;;;;;;66.60;23.80;;;;;;;-0.64;100.00;98535.04;135218;1281;22552;-72
2023/12/03 04:17:18;;;;;;;;;;;;;;;-0.59;100.00;98537.14;135237;1281;25379;-71
2023/12/03 04:20:21;;;;;;;69.10;23.80;;;;;;;-0.60;100.00;98538.88;135162;1282;22539;-71
2023/12/03 04:23:24;;;;;;;64.40;23.90;;;;;;;-0.64;100.00;98538.64;135254;1281;22556;-72
2023/12/03 04:26:26;;;;;;;62.80;25.50;;;;;;;-0.67;100.00;98542.48;135245;1261;22530;-74
2023/12/03 04:29:29;;;;;;;64.30;24.80;;;;;;;-0.61;100.00;98548.55;135228;1281;22558;-72
2023/12/03 04:32:31;;;;;;;;;;;;;;;-0.63;100.00;98546.85;135240;1277;22533;-73
2023/12/03 04:35:34;;;;;;;60.60;21.90;;;;;;;-0.55;100.00;98550.33;135245;1281;22555;-74
2023/12/03 04:38:37;;;;;;;55.00;21.20;;;;;;;-0.63;100.00;98547.89;135221;1281;22540;-72
2023/12/03 04:41:39;;;;;;;;;;;;;;;-0.64;100.00;98549.63;135277;1282;22539;-71
2023/12/03 04:44:42;;;;;;;55.00;20.80;;;;;;;-0.67;100.00;98550.39;135225;1281;22557;-71
2023/12/03 04:47:44;;;;;;;;;;;;;;;-0.71;100.00;98562.31;135260;1270;22529;-72
2023/12/03 04:50:47;;;;;;;58.60;22.50;;;;;;;-0.71;100.00;98566.08;135210;1281;22613;-72
2023/12/03 04:53:50;;;;;;;53.20;21.30;;;;;;;-0.78;100.00;98564.84;135211;1281;22564;-72
2023/12/03 04:56:53;;;;;;;49.60;18.60;;;;;;;-0.77;100.00;98568.77;135148;1281;22560;-71
2023/12/03 04:59:56;;;;;;;56.40;20.40;;;;;;;-0.88;100.00;98573.79;135234;1282;22650;-72
2023/12/03 05:02:58;;;;;;;;;;;;;;;-0.89;100.00;98577.58;135248;1262;22526;-72
2023/12/03 05:06:01;;;;;;;47.90;18.30;;;;;;;-0.95;100.00;98574.59;135244;1281;22555;-72
2023/12/03 05:09:04;;;;;;;50.40;19.50;;;;;;;-0.97;100.00;98579.63;135235;1281;22541;-72
2023/12/03 05:12:06;;;;;;;;;;;;;;;-1.00;100.00;98580.70;135242;1261;22517;-73
2023/12/03 05:15:09;;;;;;;43.30;15.50;;;;;;;-1.07;100.00;98581.00;135206;1281;22521;-73
2023/12/03 05:18:11;;;;;;;;;;;;;;;-1.12;100.00;98587.94;135235;1281;22516;-72
2023/12/03 05:21:14;;;;;;;43.00;15.00;;;;;;;-1.20;100.00;98587.56;135212;1281;22625;-73
2023/12/03 05:24:17;;;;;;;41.60;15.90;;;;;;;-1.24;100.00;98592.10;135228;1282;22532;-72
2023/12/03 05:27:19;;;;;;;;;;;;;;;-1.22;100.00;98595.50;135227;1281;22517;-72
2023/12/03 05:30:22;;;;;;;42.50;14.60;;;;;;;-1.28;100.00;98594.39;135234;1282;22606;-73
2023/12/03 05:33:25;;;;;;;42.00;15.40;;;;;;;-1.36;100.00;98600.88;135126;1282;22536;-72
2023/12/03 05:36:27;;;;;;;;;;;;;;;-1.34;100.00;98607.71;135202;1281;22509;-73
2023/12/03 05:39:30;;;;;;;40.30;15.30;;;;;;;-1.29;100.00;98608.48;135153;1281;22580;-70
2023/12/03 05:42:32;;;;;;;;;;;;;;;-1.24;100.00;98615.60;135204;1281;25761;-71
2023/12/03 05:45:35;;;;;;;41.10;15.30;;;;;;;-1.27;100.00;98615.30;135208;1281;23891;-73
2023/12/03 05:48:37;;;;;;;;;;;;;;;-1.17;100.00;98616.16;135216;1282;22610;-71
2023/12/03 05:51:40;;;;;;;38.90;14.20;;;;;;;-1.26;100.00;98622.84;135193;1264;22540;-74
2023/12/03 05:54:43;;;;;;;35.40;11.20;;;;;;;-1.21;100.00;98629.13;135182;1282;22690;-72
2023/12/03 05:57:45;;;;;;;44.30;16.40;;;;;;;-1.21;100.00;98637.00;135197;1281;22550;-73
2023/12/03 06:00:50;;;;;;;38.40;14.80;;;;;;;-1.23;100.00;98638.41;135211;1282;22786;-72
2023/12/03 06:03:53;;;;;;;38.90;15.30;;;;;;;-1.34;100.00;98640.81;135180;1282;22539;-73
2023/12/03 06:06:56;;;;;;;;;;;;;;;-1.33;100.00;98645.94;135158;1282;22550;-71
2023/12/03 06:09:58;;;;;;;32.10;11.00;;;;;;;-1.46;100.00;98657.46;135169;1281;22682;-70
2023/12/03 06:13:01;;;;;;;39.60;14.20;;;;;;;-1.49;100.00;98658.19;135150;1282;22535;-71
2023/12/03 06:16:03;;;;;;;;;;;;;;;-1.46;100.00;98658.83;135139;1270;23360;-74
2023/12/03 06:19:07;;;;;;;34.80;12.80;;;;;;;-1.42;100.00;98662.90;135130;1261;22539;-72
2023/12/03 06:22:09;;;;;;;29.30;10.00;;;;;;;-1.52;100.00;98665.79;135165;1281;22568;-72
2023/12/03 06:25:12;;;;;;;37.20;14.70;;;;;;;-1.55;100.00;98662.40;135210;1282;22552;-69
2023/12/03 06:28:14;;;;;;;;;;;;;;;-1.56;100.00;98665.16;135224;1271;22586;-73
2023/12/03 06:31:17;;;;;;;39.10;12.20;;;;;;;-1.47;100.00;98668.80;135216;1282;24223;-71
2023/12/03 06:34:19;;;;;;;;;;;;;;;-1.59;100.00;98677.02;135190;1281;22517;-81
2023/12/03 06:37:22;;;;;;;40.90;14.90;;;;;;;-1.52;100.00;98679.68;135188;1281;22531;-72
2023/12/03 06:40:25;;;;;;;;;;;;;;;-1.45;100.00;98681.98;135185;1261;24216;-72
2023/12/03 06:43:27;;;;;;;35.80;12.50;;;;;;;-1.41;100.00;98685.02;135207;1281;23000;-72
2023/12/03 06:46:30;;;;;;;37.80;14.40;;;;;;;-1.51;100.00;98689.25;135188;1281;22590;-70
2023/12/03 06:49:32;;;;;;;;;;;;;;;-1.51;100.00;98689.61;135181;1282;24216;-71
2023/12/03 06:52:35;;;;;;;37.10;14.00;;;;;;;-1.38;100.00;98694.92;135160;1281;22529;-72
2023/12/03 06:55:37;;;;;;;40.10;16.00;;;;;;;-1.29;100.00;98694.61;135149;1282;22540;-73
2023/12/03 06:58:40;;;;;;;;;;;;;;;-1.35;100.00;98704.48;135170;1282;22517;-71
2023/12/03 07:01:43;;;;;;;38.60;14.50;;;;;;;-1.41;100.00;98705.77;135181;1281;22532;-72
2023/12/03 07:04:46;;;;;;;36.00;13.60;;;;;;;-1.30;100.00;98713.48;135216;1281;22525;-71
2023/12/03 07:07:50;;;;;;;;;;;;;;;-1.38;100.00;98718.24;135231;1281;22545;-71
2023/12/03 07:10:52;;;;;;;39.60;14.90;;;;;;;-1.40;100.00;98717.59;135207;1261;22611;-71
2023/12/03 07:13:55;;;;;;;;;;;;;;;-1.41;100.00;98719.66;135229;1261;22536;-72
2023/12/03 07:16:58;;;;;;;37.50;14.90;;;;;;;-1.38;100.00;98724.77;135226;1281;22538;-72
2023/12/03 07:20:00;;;;;;;;;;;;;;;-1.27;100.00;98732.17;135241;1278;22511;-71
2023/12/03 07:23:03;;;;;;;;;;;;;;;-1.20;100.00;98738.91;135256;1281;22603;-71
2023/12/03 07:26:06;;;;;;;;;;;;;;;-1.13;100.00;98743.10;135188;1281;22525;-72
2023/12/03 07:29:09;;;;;;;39.10;14.50;;;;;;;-1.05;100.00;98749.34;135192;1261;22529;-72
2023/12/03 07:32:11;;;;;;;41.00;16.20;;;;;;;-1.02;100.00;98758.72;135210;1281;22536;-73
2023/12/03 07:35:14;;;;;;;39.80;15.90;;;;;;;-0.96;100.00;98759.84;135234;1281;22670;-72
2023/12/03 07:38:17;;;;;;;41.00;15.20;;;;;;;-0.78;100.00;98761.96;135183;1261;22536;-72
2023/12/03 07:41:19;;;;;;;;;;;;;;;-0.77;100.00;98764.52;135265;1281;22637;-72
2023/12/03 07:44:22;;;;;;;40.20;14.70;;;;;;;-0.81;100.00;98767.67;135205;1281;22559;-71
2023/12/03 07:47:25;;;;;;;37.00;14.50;;;;;;;-0.91;100.00;98765.43;135265;1281;22584;-71
2023/12/03 07:50:27;;;;;;;;;;;;;;;-0.77;100.00;98766.23;135211;1281;22501;-74
2023/12/03 07:53:30;;;;;;;37.80;13.70;;;;;;;-0.67;100.00;98765.91;135246;1281;22527;-72
2023/12/03 07:56:32;;;;;;;;;;;;;;;-0.74;100.00;98764.65;135241;1266;23020;-74
2023/12/03 07:59:35;;;;;;;39.60;14.80;;;;;;;-0.77;100.00;98764.70;135239;1281;22540;-73
2023/12/03 08:02:37;;;;;;;;;;;;;;;-0.77;100.00;98767.77;135253;1263;22513;-73
2023/12/03 08:05:41;;;;;;;37.20;14.50;;;;;;;-0.69;100.00;98766.64;135165;1281;22554;-73
2023/12/03 08:08:43;;;;;;;43.30;16.60;;;;;;;-0.62;100.00;98770.80;135223;1281;22555;-74
2023/12/03 08:11:46;;;;;;;;;;;;;;;-0.50;100.00;98773.34;135230;1281;22503;-72
2023/12/03 08:14:48;;;;;;;35.70;15.30;;;;;;;-0.33;100.00;98777.18;135184;1281;22617;-73
2023/12/03 08:17:51;;;;;;;;;;;;;;;-0.23;100.00;98783.54;135228;1261;22536;-73
2023/12/03 08:20:56;;;;;;;37.90;13.60;;;;;;;-0.23;100.00;98783.03;135169;1281;22709;-74
2023/12/03 08:24:00;;;;;;;38.80;15.20;;;;;;;-0.27;100.00;98789.29;135210;1281;22718;-73
2023/12/03 08:27:04;;;;;;;36.20;12.90;;;;;;;-0.24;100.00;98791.98;135247;1281;22537;-73
2023/12/03 08:30:07;;;;;;;35.80;13.20;;;;;;;-0.26;100.00;98791.33;135193;1262;22529;-74
2023/12/03 08:33:10;;;;;;;37.40;13.90;;;;;;;-0.20;100.00;98794.31;135177;1281;22546;-72
2023/12/03 08:36:12;;;;;;;35.80;13.40;;;;;;;-0.22;100.00;98803.98;135145;1281;22551;-73
2023/12/03 08:39:16;;;;;;;31.20;12.30;;;;;;;-0.18;100.00;98804.60;135132;1281;22606;-72
2023/12/03 08:42:19;;;;;;;34.00;12.50;;;;;;;-0.06;100.00;98811.95;135192;1281;22554;-72
2023/12/03 08:45:30;;;;;;;35.00;13.70;;;;;;;-0.03;100.00;98814.98;135193;1281;22539;-73
2023/12/03 08:48:34;;;;;;;34.30;13.50;;;;;;;-0.09;100.00;98814.41;135249;1281;22543;-73
2023/12/03 08:51:37;;;;;;;34.50;13.60;;;;;;;-0.10;100.00;98816.83;135191;1282;22658;-73
2023/12/03 08:54:51;;;;;;;33.90;12.20;;;;;;;0.08;100.00;98819.95;135121;1281;22549;-72
2023/12/03 08:57:59;;;;;;;31.30;11.90;;;;;;;0.01;100.00;98823.69;135127;1282;22559;-72
2023/12/03 09:01:03;;;;;;;33.90;13.00;;;;;;;0.07;100.00;98828.56;135172;1282;22532;-73
2023/12/03 09:04:07;;;;;;;32.80;12.40;;;;;;;0.18;100.00;98832.14;135134;1282;24152;-73
2023/12/03 09:07:11;;;;;;;32.50;13.10;;;;;;;0.28;100.00;98833.48;135160;1282;23896;-72
2023/12/03 09:10:14;;;;;;;32.80;13.30;;;;;;;0.34;100.00;98837.69;135171;1282;26696;-73
2023/12/03 09:13:19;;;;;;;35.00;12.80;;;;;;;0.52;100.00;98844.91;135163;1282;22542;-72
2023/12/03 09:16:22;;;;;;;33.80;13.50;;;;;;;0.47;100.00;98846.22;135191;1282;22539;-72
2023/12/03 09:19:27;;;;;;;33.00;12.60;;;;;;;0.53;100.00;98849.54;135176;1281;25487;-73
2023/12/03 09:22:32;;;;;;;37.00;14.70;;;;;;;0.54;100.00;98852.08;135171;1282;22673;-73
2023/12/03 09:25:38;;;;;;;34.30;13.80;;;;;;;0.65;100.00;98853.43;135224;1282;22568;-73
2023/12/03 09:28:43;;;;;;;33.40;14.00;;;;;;;0.72;100.00;98857.77;135187;1281;22544;-73
2023/12/03 09:31:49;;;;;;;34.00;14.00;;;;;;;0.72;100.00;98861.38;135132;1282;22645;-72
2023/12/03 09:34:52;;;;;;;33.00;12.20;;;;;;;0.76;100.00;98860.95;135152;1282;22543;-72
2023/12/03 09:41:13;;;;;;;33.10;13.80;;;;;;;0.95;100.00;98866.92;135138;1282;22545;-71
2023/12/03 09:44:18;;;;;;;34.30;13.60;;;;;;;1.00;100.00;98866.48;135183;1282;22545;-72
2023/12/03 09:47:23;;;;;;;32.40;12.90;;;;;;;0.97;100.00;98866.90;135185;1281;22553;-73
2023/12/03 09:50:42;;;;;;;34.30;13.40;;;;;;;0.99;100.00;98868.20;135148;1282;22536;-73
2023/12/03 09:53:45;;;;;;;32.70;12.60;;;;;;;0.95;100.00;98869.17;135163;1282;22558;-72
2023/12/03 09:56:51;;;;;;;32.70;12.80;;;;;;;0.93;100.00;98879.02;135206;1281;22643;-73
2023/12/03 09:59:54;;;;;;;30.20;12.50;;;;;;;1.04;100.00;98883.08;135174;1281;22532;-72
2023/12/03 10:03:05;;;;;;;32.80;13.30;;;;;;;1.00;100.00;98880.42;131789;1281;5435195;-73
2023/12/03 10:06:20;;;;;;;31.70;12.20;;;;;;;1.13;100.00;98882.73;135049;1282;22535;-72
2023/12/03 10:09:27;;;;;;;32.20;12.50;;;;;;;1.08;100.00;98884.73;135200;1282;22550;-73
2023/12/03 10:12:34;;;;;;;30.30;11.90;;;;;;;1.14;100.00;98884.42;135242;1282;22648;-74
2023/12/03 10:15:40;;;;;;;30.90;12.10;;;;;;;1.11;100.00;98888.80;135201;1281;22543;-73
2023/12/03 10:18:51;;;;;;;32.20;12.90;;;;;;;1.04;100.00;98890.48;135241;1278;22543;-73
2023/12/03 10:21:59;;;;;;;33.20;13.50;;;;;;;1.27;100.00;98892.41;135247;1282;22541;-72
2023/12/03 10:25:06;;;;;;;32.80;12.40;;;;;;;1.24;100.00;98902.98;135220;1281;22551;-71
2023/12/03 10:28:15;;;;;;;35.30;14.00;;;;;;;1.23;100.00;98904.05;135211;1282;25353;-72
2023/12/03 10:31:32;;;;;;;30.40;10.80;;;;;;;1.32;100.00;98905.91;135203;1264;24224;-75
2023/12/03 10:34:38;;;;;;;32.00;13.00;;;;;;;1.27;100.00;98909.64;135209;1282;22583;-73
2023/12/03 10:37:43;;;;;;;31.90;13.30;;;;;;;1.33;100.00;98908.30;135219;1282;22546;-72
2023/12/03 10:40:58;;;;;;;32.20;13.50;;;;;;;1.45;100.00;98907.18;135187;1282;22570;-73
2023/12/03 10:47:30;;;;;;;29.70;12.00;;;;;;;1.55;100.00;98913.14;135244;1282;22544;-71
2023/12/03 10:50:36;;;;;;;30.90;11.50;;;;;;;1.51;100.00;98918.92;135196;1281;22555;-72
2023/12/03 10:53:46;;;;;;;30.40;11.90;;;;;;;1.40;100.00;98922.63;135172;1282;22536;-72
2023/12/03 10:56:50;;;;;;;30.20;12.30;;;;;;;1.43;100.00;98922.40;135159;1281;22526;-72
2023/12/03 11:00:02;;;;;;;30.30;12.10;;;;;;;1.41;100.00;98930.71;135170;1262;24199;-73
2023/12/03 11:03:15;;;;;;;29.50;11.90;;;;;;;1.55;100.00;98928.15;135222;1261;22536;-73
2023/12/03 11:06:28;;;;;;;29.70;11.70;;;;;;;1.57;100.00;98936.20;135117;1282;22670;-71
2023/12/03 11:09:31;;;;;;;28.70;11.10;;;;;;;1.65;100.00;98934.48;135231;1282;22536;-73
2023/12/03 11:12:38;;;;;;;30.30;12.40;;;;;;;1.62;100.00;98939.38;135194;1281;22593;-73
2023/12/03 11:15:45;;;;;;;31.60;12.40;;;;;;;1.62;100.00;98939.88;135223;1281;22652;-73
2023/12/03 11:18:50;;;;;;;29.00;10.90;;;;;;;1.52;100.00;98949.08;135251;1282;22596;-74
2023/12/03 11:21:57;;;;;;;33.40;11.70;;;;;;;1.41;100.00;98953.63;135190;1281;22543;-72
2023/12/03 11:25:04;;;;;;;28.70;11.50;;;;;;;1.37;100.00;98956.48;135243;1281;24226;-73
2023/12/03 11:31:27;;;;;;;28.90;11.10;;;;;;;1.50;100.00;98964.29;135205;1282;22596;-72
2023/12/03 11:34:29;;;;;;;30.20;11.80;;;;;;;1.57;100.00;98967.06;135218;1281;22537;-72
2023/12/03 11:37:36;;;;;;;29.50;12.00;;;;;;;1.55;100.00;98974.85;135219;1267;22567;-72
2023/12/03 11:40:42;;;;;;;28.10;10.90;;;;;;;1.53;100.00;98978.88;135177;1263;23001;-72
2023/12/03 11:43:47;;;;;;;26.90;10.50;;;;;;;1.54;100.00;98985.06;135215;1281;22546;-72
2023/12/03 11:46:54;;;;;;;29.20;11.20;;;;;;;1.65;100.00;98981.38;135246;1282;24188;-72
2023/12/03 11:50:00;;;;;;;27.60;10.90;;;;;;;1.70;100.00;98989.88;135208;1282;22535;-73
2023/12/03 11:53:04;;;;;;;28.50;10.50;;;;;;;1.74;100.00;98985.81;135162;1282;22707;-72
2023/12/03 11:56:21;;;;;;;26.80;10.30;;;;;;;1.70;100.00;98990.41;135191;1281;22550;-73
2023/12/03 11:59:24;;;;;;;26.20;10.50;;;;;;;1.69;100.00;98991.11;135150;1267;22569;-72
2023/12/03 12:02:38;;;;;;;27.50;10.80;;;;;;;1.67;100.00;98994.77;135159;1259;22556;-72
2023/12/03 12:05:46;;;;;;;26.10;10.20;;;;;;;1.71;100.00;99000.36;135182;1282;22578;-72
2023/12/03 12:08:49;;;;;;;25.20;9.70;;;;;;;1.70;100.00;99003.84;135217;1281;22536;-72
2023/12/03 12:11:54;;;;;;;27.60;10.80;;;;;;;1.56;100.00;99004.50;135225;1281;22522;-73
2023/12/03 12:14:57;;;;;;;26.70;10.40;;;;;;;1.54;100.00;99012.47;135213;1281;24222;-73
2023/12/03 12:18:02;;;;;;;29.70;10.30;;;;;;;1.48;100.00;99013.45;135199;1281;22540;-73
2023/12/03 12:21:16;;;;;;;27.40;9.80;;;;;;;1.59;100.00;99019.41;135171;1282;22547;-71
2023/12/03 12:24:22;;;;;;;28.50;10.40;;;;;;;1.44;100.00;99025.95;135260;1282;24147;-73
2023/12/03 12:27:28;;;;;;;27.40;10.50;;;;;;;1.36;100.00;99033.33;135228;1282;22532;-71
2023/12/03 12:30:47;;;;;;;27.80;10.60;;;;;;;1.49;100.00;99035.67;135248;1265;22636;-74
2023/12/03 12:34:10;;;;;;;29.40;11.20;;;;;;;1.45;100.00;99039.36;135214;1282;22525;-72
2023/12/03 12:37:19;;;;;;;29.00;10.50;;;;;;;1.36;100.00;99046.26;135221;1268;24201;-73
2023/12/03 12:40:24;;;;;;;28.60;10.30;;;;;;;1.35;100.00;99051.09;135208;1281;22539;-74
2023/12/03 12:43:30;;;;;;;29.70;10.90;;;;;;;1.34;100.00;99054.74;135213;1281;22542;-73
2023/12/03 12:46:34;;;;;;;31.50;11.30;;;;;;;1.26;100.00;99057.31;135227;1281;22538;-72
2023/12/03 12:49:42;;;;;;;29.70;11.60;;;;;;;1.23;100.00;99057.39;135178;1276;22532;-73
2023/12/03 12:52:45;;;;;;;32.50;11.50;;;;;;;1.22;100.00;99063.07;135230;1278;22545;-74
2023/12/03 12:55:55;;;;;;;28.30;11.20;;;;;;;1.16;100.00;99061.64;135200;1281;22540;-72
2023/12/03 13:02:19;;;;;;;30.90;11.10;;;;;;;1.05;100.00;99071.48;135217;1282;22540;-74
2023/12/03 13:05:36;;;;;;;31.90;12.00;;;;;;;1.01;100.00;99073.10;135207;1265;23160;-72
2023/12/03 13:08:39;;;;;;;31.70;12.00;;;;;;;0.82;100.00;99081.20;135179;1282;22585;-73
2023/12/03 13:11:43;;;;;;;31.80;12.10;;;;;;;0.73;100.00;99089.79;135152;1281;22532;-72
2023/12/03 13:14:51;;;;;;;34.40;11.80;;;;;;;0.80;100.00;99084.16;135145;1282;22578;-73
2023/12/03 13:17:55;;;;;;;30.90;11.10;;;;;;;0.56;100.00;99083.86;135182;1282;24793;-74
2023/12/03 13:21:01;;;;;;;31.60;11.80;;;;;;;0.51;100.00;99087.55;135144;1282;22548;-71
2023/12/03 13:24:06;;;;;;;32.60;11.80;;;;;;;0.58;100.00;99093.64;135154;1282;22555;-74
2023/12/03 13:27:11;;;;;;;32.50;12.30;;;;;;;0.68;100.00;99098.98;135147;1281;22559;-72
2023/12/03 13:30:17;;;;;;;35.50;12.30;;;;;;;0.77;100.00;99102.12;135172;1282;22535;-71
2023/12/03 13:33:20;;;;;;;33.60;11.70;;;;;;;0.67;100.00;99106.92;135136;1281;22547;-71
2023/12/03 13:36:24;;;;;;;33.40;11.80;;;;;;;0.69;100.00;99109.47;135206;1281;22555;-74
2023/12/03 13:39:29;;;;;;;34.10;13.00;;;;;;;0.58;100.00;99108.09;135166;1281;24680;-72
2023/12/03 13:42:32;;;;;;;32.30;12.20;;;;;;;0.68;100.00;99113.27;135160;1281;22546;-71
2023/12/03 13:45:38;;;;;;;32.80;12.10;;;;;;;0.55;100.00;99118.98;135194;1267;22529;-71
2023/12/03 13:48:42;;;;;;;31.80;10.80;;;;;;;0.60;100.00;99122.35;135180;1282;22555;-72
2023/12/03 13:51:46;;;;;;;33.70;11.40;;;;;;;0.53;100.00;99132.77;135169;1282;22526;-71
2023/12/03 13:54:55;;;;;;;29.70;10.10;;;;;;;0.43;100.00;99142.39;135117;1282;22562;-70
2023/12/03 13:58:05;;;;;;;30.50;10.50;;;;;;;0.48;100.00;99143.86;135164;1282;22652;-71
2023/12/03 14:01:15;;;;;;;31.00;10.30;;;;;;;0.37;100.00;99148.68;135199;1282;22555;-71
2023/12/03 14:04:20;;;;;;;31.90;11.90;;;;;;;0.34;100.00;99150.96;135135;1282;22539;-71
2023/12/03 14:07:26;;;;;;;34.10;10.10;;;;;;;0.24;100.00;99163.48;135132;1273;22576;-71
2023/12/03 14:10:31;;;;;;;31.60;10.70;;;;;;;0.18;100.00;99162.88;135149;1262;22553;-71
2023/12/03 14:13:36;;;;;;;28.20;10.00;;;;;;;0.21;100.00;99166.95;135134;1282;22532;-71
2023/12/03 14:16:43;;;;;;;30.30;10.10;;;;;;;0.16;100.00;99170.29;135114;1282;22530;-71
2023/12/03 14:19:48;;;;;;;27.70;8.90;;;;;;;-0.08;100.00;99180.56;135188;1264;24185;-71
2023/12/03 14:22:52;;;;;;;28.50;8.90;;;;;;;-0.01;100.00;99177.39;135130;1282;22547;-71
2023/12/03 14:25:57;;;;;;;34.50;10.20;;;;;;;-0.03;100.00;99186.52;135169;1281;22556;-70